Time;durP1;ratioP1;P1;durP2;ratioP2;P2;SDS_P1;SDS_P2;PMS_P1;PMS_P2;Temp;Humidity;BMP_temperature;BMP_pressure;BME280_temperature;BME280_humidity;BME280_pressure;Samples;Min_cycle;Max_cycle;Signal;HPM_P1;HPM_P2
2022/01/08 00:02:08;;;;;;;2.28;1.95;;;;;;;;;;5031501;28;20178;-66
2022/01/08 00:04:34;;;;;;;1.88;1.70;;;;;;;;;;5031836;28;20488;-66
2022/01/08 00:07:01;;;;;;;7.15;2.90;;;;;;;;;;5032021;28;20083;-66
2022/01/08 00:09:27;;;;;;;5.75;2.95;;;;;;;;;;5031144;28;20022;-66
2022/01/08 00:11:53;;;;;;;3.55;2.90;;;;;;;;;;5031548;28;20044;-66
2022/01/08 00:14:21;;;;;;;6.55;3.65;;;;;;;;;;5032023;28;20100;-66
2022/01/08 00:16:47;;;;;;;4.45;3.47;;;;;;;;;;5031949;28;20040;-67
2022/01/08 00:19:13;;;;;;;5.57;3.50;;;;;;;;;;5030680;28;20407;-66
2022/01/08 00:21:39;;;;;;;7.72;3.35;;;;;;;;;;5032589;28;20029;-65
2022/01/08 00:24:05;;;;;;;6.45;3.42;;;;;;;;;;5032228;28;20018;-68
2022/01/08 00:26:31;;;;;;;5.93;3.20;;;;;;;;;;5031827;28;20025;-67
2022/01/08 00:28:59;;;;;;;3.78;3.00;;;;;;;;;;5031427;28;20030;-66
2022/01/08 00:31:25;;;;;;;4.15;3.55;;;;;;;;;;5032105;28;20042;-66
2022/01/08 00:33:52;;;;;;;4.78;3.67;;;;;;;;;;5031788;28;20103;-66
2022/01/08 00:36:18;;;;;;;3.60;3.30;;;;;;;;;;5031725;28;20064;-66
2022/01/08 00:38:44;;;;;;;6.28;3.30;;;;;;;;;;5031545;28;20075;-66
2022/01/08 00:41:10;;;;;;;5.25;3.05;;;;;;;;;;5031769;28;20100;-66
2022/01/08 00:43:36;;;;;;;7.22;3.03;;;;;;;;;;5032037;28;20033;-66
2022/01/08 00:46:02;;;;;;;5.70;3.33;;;;;;;;;;5034693;28;20079;-66
2022/01/08 00:48:28;;;;;;;3.05;2.65;;;;;;;;;;5035217;28;20041;-66
2022/01/08 00:50:55;;;;;;;4.28;2.60;;;;;;;;;;5035898;28;20034;-66
2022/01/08 00:53:21;;;;;;;3.17;2.60;;;;;;;;;;5035662;28;20488;-66
2022/01/08 00:55:47;;;;;;;4.05;2.20;;;;;;;;;;5036925;28;20030;-66
2022/01/08 00:58:13;;;;;;;2.65;2.33;;;;;;;;;;5040079;28;20423;-66
2022/01/08 01:00:41;;;;;;;3.15;2.78;;;;;;;;;;5036704;28;20029;-66
2022/01/08 01:03:07;;;;;;;4.35;2.40;;;;;;;;;;5032024;28;20079;-66
2022/01/08 01:05:33;;;;;;;3.25;2.20;;;;;;;;;;5031463;28;20036;-66
2022/01/08 01:07:59;;;;;;;3.70;2.15;;;;;;;;;;5032621;28;20031;-66
2022/01/08 01:10:25;;;;;;;7.18;3.00;;;;;;;;;;5034814;28;20033;-67
2022/01/08 01:12:51;;;;;;;2.63;2.00;;;;;;;;;;5036196;28;20037;-66
2022/01/08 01:15:17;;;;;;;2.97;2.30;;;;;;;;;;5035477;28;20037;-67
2022/01/08 01:17:44;;;;;;;2.67;2.40;;;;;;;;;;5035678;28;20064;-67
2022/01/08 01:20:14;;;;;;;3.63;2.40;;;;;;;;;;5034904;28;20029;-67
2022/01/08 01:23:08;;;;;;;2.97;2.38;;;;;;;;;;5036351;28;20021;-66
2022/01/08 01:25:37;;;;;;;5.05;2.40;;;;;;;;;;5035297;28;20039;-66
2022/01/08 01:48:58;;;;;;;5.90;1.77;;;;;;;;;;5068636;28;20437;-67
2022/01/08 01:51:24;;;;;;;4.60;1.77;;;;;;;;;;5069260;28;20028;-66
2022/01/08 01:53:51;;;;;;;4.05;1.83;;;;;;;;;;5069161;28;20261;-67
2022/01/08 01:56:21;;;;;;;4.05;1.63;;;;;;;;;;5065542;28;20052;-66
2022/01/08 01:58:47;;;;;;;3.17;1.40;;;;;;;;;;5068474;28;20036;-66
2022/01/08 02:01:14;;;;;;;3.42;1.55;;;;;;;;;;5068914;28;20036;-66
2022/01/08 02:03:40;;;;;;;3.25;1.50;;;;;;;;;;5052992;28;20080;-66
2022/01/08 02:06:07;;;;;;;1.95;1.65;;;;;;;;;;5048290;28;20030;-67
2022/01/08 02:08:33;;;;;;;2.38;2.17;;;;;;;;;;5048084;28;20387;-66
2022/01/08 02:10:59;;;;;;;3.72;1.77;;;;;;;;;;5048555;28;20030;-67
2022/01/08 02:13:26;;;;;;;2.05;1.38;;;;;;;;;;5048990;28;20025;-67
2022/01/08 02:15:54;;;;;;;1.63;1.40;;;;;;;;;;5047768;28;20108;-66
2022/01/08 02:18:21;;;;;;;2.25;1.70;;;;;;;;;;5048203;28;20033;-66
2022/01/08 02:20:47;;;;;;;2.55;1.60;;;;;;;;;;5048838;28;20064;-66
2022/01/08 02:23:13;;;;;;;1.70;1.40;;;;;;;;;;5048742;28;20061;-66
2022/01/08 02:25:39;;;;;;;2.15;1.45;;;;;;;;;;5048358;28;20026;-66
2022/01/08 02:28:06;;;;;;;1.98;1.58;;;;;;;;;;5048345;28;20037;-67
2022/01/08 02:30:32;;;;;;;2.25;1.40;;;;;;;;;;5048544;28;20024;-66
2022/01/08 02:32:58;;;;;;;3.83;1.92;;;;;;;;;;5055870;28;20035;-67
2022/01/08 02:35:25;;;;;;;1.85;1.38;;;;;;;;;;5062678;28;20025;-66
2022/01/08 02:37:51;;;;;;;2.85;1.60;;;;;;;;;;5048815;28;20040;-66
2022/01/08 02:40:19;;;;;;;2.63;1.50;;;;;;;;;;5047611;28;20102;-66
2022/01/08 02:43:00;;;;;;;2.40;1.55;;;;;;;;;;5048254;28;20033;-66
2022/01/08 02:45:27;;;;;;;1.43;1.33;;;;;;;;;;5051053;28;20195;-66
2022/01/08 02:47:53;;;;;;;4.00;1.65;;;;;;;;;;5067191;28;20368;-66
2022/01/08 02:50:19;;;;;;;2.10;1.60;;;;;;;;;;5067529;28;20027;-67
2022/01/08 02:52:46;;;;;;;3.13;1.50;;;;;;;;;;5068063;28;20028;-65
2022/01/08 02:55:19;;;;;;;1.60;1.30;;;;;;;;;;5067598;28;20025;-65
2022/01/08 02:57:46;;;;;;;2.17;1.67;;;;;;;;;;5067837;28;20032;-65
2022/01/08 03:00:13;;;;;;;2.05;1.55;;;;;;;;;;5055009;28;20052;-66
2022/01/08 03:02:43;;;;;;;2.25;1.75;;;;;;;;;;5054562;28;20053;-67
2022/01/08 03:05:11;;;;;;;1.58;1.48;;;;;;;;;;5054457;28;20483;-65
2022/01/08 03:07:38;;;;;;;1.67;1.50;;;;;;;;;;5054450;28;20029;-65
2022/01/08 03:10:04;;;;;;;2.20;1.50;;;;;;;;;;5043971;28;20022;-66
2022/01/08 03:12:31;;;;;;;3.80;1.50;;;;;;;;;;5034440;28;20033;-66
2022/01/08 03:14:57;;;;;;;3.05;1.25;;;;;;;;;;5034160;28;20784;-66
2022/01/08 03:17:23;;;;;;;2.00;1.75;;;;;;;;;;5034309;28;20030;-66
2022/01/08 03:19:53;;;;;;;4.53;2.33;;;;;;;;;;5033696;28;20501;-66
2022/01/08 03:22:19;;;;;;;1.30;1.30;;;;;;;;;;5034387;28;20038;-66
2022/01/08 03:24:45;;;;;;;1.95;1.60;;;;;;;;;;5034303;28;20052;-66
2022/01/08 03:27:12;;;;;;;4.18;1.60;;;;;;;;;;5034351;28;20099;-66
2022/01/08 03:29:38;;;;;;;3.50;1.60;;;;;;;;;;5033322;28;20032;-65
2022/01/08 03:34:33;;;;;;;1.75;1.20;;;;;;;;;;5130230;27;20386;-66
2022/01/08 03:36:59;;;;;;;1.83;1.40;;;;;;;;;;5150370;27;20042;-67
2022/01/08 03:39:25;;;;;;;1.88;1.73;;;;;;;;;;5149998;27;20027;-66
2022/01/08 03:41:52;;;;;;;3.08;1.60;;;;;;;;;;5150506;27;20027;-67
2022/01/08 03:44:19;;;;;;;3.33;1.77;;;;;;;;;;5135525;27;20034;-67
2022/01/08 03:46:45;;;;;;;1.95;1.55;;;;;;;;;;5151905;27;20019;-66
2022/01/08 03:49:22;;;;;;;3.08;1.60;;;;;;;;;;5149902;27;20023;-67
2022/01/08 03:51:48;;;;;;;1.85;1.52;;;;;;;;;;5150319;27;20035;-67
2022/01/08 03:54:14;;;;;;;2.20;1.80;;;;;;;;;;5150278;27;20019;-67
2022/01/08 03:56:40;;;;;;;2.28;1.90;;;;;;;;;;5150327;27;20031;-65
2022/01/08 04:03:10;;;;;;;1.98;1.60;;;;;;;;;;5089287;27;20377;-67
2022/01/08 04:05:36;;;;;;;2.25;1.50;;;;;;;;;;5089269;28;20037;-67
2022/01/08 04:08:02;;;;;;;1.77;1.50;;;;;;;;;;5088911;28;20024;-67
2022/01/08 04:10:28;;;;;;;1.55;1.30;;;;;;;;;;5076384;28;20473;-67
2022/01/08 04:17:50;;;;;;;1.63;1.52;;;;;;;;;;5069074;28;20033;-67
2022/01/08 04:20:17;;;;;;;1.98;1.63;;;;;;;;;;5068455;28;20239;-67
2022/01/08 04:22:45;;;;;;;1.13;1.13;;;;;;;;;;5068928;28;20017;-67
2022/01/08 04:25:11;;;;;;;1.80;1.30;;;;;;;;;;5068909;28;20032;-67
2022/01/08 04:27:37;;;;;;;1.40;1.30;;;;;;;;;;5069088;28;20040;-66
2022/01/08 04:30:04;;;;;;;2.25;1.50;;;;;;;;;;5067834;28;20017;-67
2022/01/08 04:32:30;;;;;;;1.00;1.00;;;;;;;;;;5068813;28;20099;-66
2022/01/08 04:34:56;;;;;;;0.98;0.98;;;;;;;;;;5068548;28;20033;-66
2022/01/08 04:42:05;;;;;;;1.10;1.10;;;;;;;;;;5109495;27;20380;-67
2022/01/08 04:44:31;;;;;;;1.48;1.35;;;;;;;;;;5109412;28;20035;-67
2022/01/08 04:46:58;;;;;;;1.20;1.10;;;;;;;;;;5109480;28;20024;-67
2022/01/08 04:49:24;;;;;;;1.10;1.10;;;;;;;;;;5108931;28;20049;-66
2022/01/08 04:51:50;;;;;;;1.20;1.10;;;;;;;;;;5109458;28;20044;-67
2022/01/08 04:54:16;;;;;;;2.60;1.20;;;;;;;;;;5109498;28;20111;-66
2022/01/08 04:56:42;;;;;;;1.13;1.13;;;;;;;;;;5110146;28;20028;-65
2022/01/08 04:59:08;;;;;;;1.30;1.20;;;;;;;;;;5109111;28;20035;-66
2022/01/08 05:01:34;;;;;;;1.63;1.52;;;;;;;;;;5108316;28;20070;-66
2022/01/08 05:04:00;;;;;;;2.40;0.98;;;;;;;;;;5110157;28;20397;-66
2022/01/08 05:06:26;;;;;;;1.05;1.05;;;;;;;;;;5109596;28;20103;-67
2022/01/08 05:08:52;;;;;;;1.40;1.40;;;;;;;;;;5108568;28;20020;-67
2022/01/08 05:11:18;;;;;;;1.60;1.20;;;;;;;;;;5109173;28;20090;-66
2022/01/08 05:13:45;;;;;;;2.63;1.55;;;;;;;;;;5109066;28;20035;-66
2022/01/08 05:16:11;;;;;;;1.27;1.17;;;;;;;;;;5108915;28;20031;-65
2022/01/08 05:18:37;;;;;;;1.02;1.02;;;;;;;;;;5108203;28;20504;-66
2022/01/08 05:23:48;;;;;;;1.00;1.00;;;;;;;;;;5109860;28;20084;-66
2022/01/08 05:26:15;;;;;;;1.67;1.10;;;;;;;;;;5109080;28;20115;-66
2022/01/08 05:28:41;;;;;;;1.05;1.05;;;;;;;;;;5102404;28;20027;-66
2022/01/08 05:33:43;;;;;;;1.00;1.00;;;;;;;;;;5088807;28;20451;-67
2022/01/08 05:36:09;;;;;;;1.00;1.00;;;;;;;;;;5089456;28;20032;-66
2022/01/08 05:38:35;;;;;;;1.83;0.90;;;;;;;;;;5088960;28;20024;-67
2022/01/08 05:41:02;;;;;;;1.10;1.10;;;;;;;;;;5089646;28;20456;-66
2022/01/08 05:43:28;;;;;;;1.48;1.00;;;;;;;;;;5089276;28;20465;-66
2022/01/08 05:45:56;;;;;;;0.95;0.95;;;;;;;;;;5089527;28;20072;-65
2022/01/08 05:48:22;;;;;;;1.35;0.80;;;;;;;;;;5088508;28;20058;-65
2022/01/08 05:50:49;;;;;;;0.80;0.80;;;;;;;;;;5089482;28;20066;-66
2022/01/08 05:53:16;;;;;;;0.68;0.68;;;;;;;;;;5089193;28;20367;-66
2022/01/08 05:55:42;;;;;;;0.68;0.68;;;;;;;;;;5088925;28;20032;-65
2022/01/08 05:58:08;;;;;;;0.60;0.60;;;;;;;;;;5089474;28;20390;-66
2022/01/08 06:00:34;;;;;;;0.60;0.60;;;;;;;;;;5092168;28;20068;-66
2022/01/08 06:03:00;;;;;;;0.50;0.50;;;;;;;;;;5099073;28;20024;-66
2022/01/08 06:07:39;;;;;;;0.70;0.70;;;;;;;;;;5089960;28;20378;-67
2022/01/08 06:10:05;;;;;;;0.60;0.60;;;;;;;;;;5089132;28;20101;-65
2022/01/08 06:12:31;;;;;;;0.60;0.60;;;;;;;;;;5089500;28;20112;-67
2022/01/08 06:14:57;;;;;;;0.60;0.60;;;;;;;;;;5089188;28;20043;-68
2022/01/08 06:17:24;;;;;;;0.60;0.60;;;;;;;;;;5089368;28;20033;-67
2022/01/08 06:19:50;;;;;;;0.60;0.60;;;;;;;;;;5089232;28;20063;-68
2022/01/08 06:22:16;;;;;;;0.60;0.60;;;;;;;;;;5089787;28;20029;-67
2022/01/08 06:24:42;;;;;;;0.90;0.90;;;;;;;;;;5089526;28;20035;-66
2022/01/08 06:27:08;;;;;;;0.75;0.70;;;;;;;;;;5096327;28;20066;-66
2022/01/08 06:29:34;;;;;;;0.60;0.60;;;;;;;;;;5088727;28;20135;-66
2022/01/08 06:32:00;;;;;;;0.70;0.70;;;;;;;;;;5089347;28;20077;-66
2022/01/08 06:34:26;;;;;;;0.85;0.60;;;;;;;;;;5078364;28;20490;-65
2022/01/08 06:36:53;;;;;;;0.85;0.80;;;;;;;;;;5069309;28;20043;-65
2022/01/08 06:39:19;;;;;;;0.75;0.75;;;;;;;;;;5068186;28;20491;-65
2022/01/08 06:41:45;;;;;;;0.75;0.75;;;;;;;;;;5069523;28;20028;-65
2022/01/08 06:44:11;;;;;;;0.95;0.95;;;;;;;;;;5067593;28;20039;-65
2022/01/08 06:46:37;;;;;;;0.75;0.75;;;;;;;;;;5071774;28;20029;-65
2022/01/08 06:49:03;;;;;;;0.80;0.80;;;;;;;;;;5073497;28;20477;-65
2022/01/08 06:51:29;;;;;;;1.60;1.17;;;;;;;;;;5074871;28;20033;-65
2022/01/08 06:53:55;;;;;;;1.13;1.13;;;;;;;;;;5076564;28;20070;-66
2022/01/08 06:56:21;;;;;;;1.00;1.00;;;;;;;;;;5076624;28;20032;-66
2022/01/08 06:58:47;;;;;;;1.52;1.35;;;;;;;;;;5071561;28;20033;-66
2022/01/08 07:01:14;;;;;;;1.00;1.00;;;;;;;;;;5070809;28;20051;-66
2022/01/08 07:03:39;;;;;;;1.65;1.25;;;3.40;99.90;;;;;;5068590;28;20037;-66
2022/01/08 07:06:05;;;;;;;1.50;1.40;;;;;;;;;;5066594;28;20451;-69
2022/01/08 07:08:31;;;;;;;1.63;1.50;;;3.30;99.90;;;;;;5071456;28;20467;-70
2022/01/08 07:10:57;;;;;;;1.70;1.60;;;;;;;;;;5087871;28;20093;-72
2022/01/08 07:13:23;;;;;;;1.30;1.20;;;4.10;99.90;;;;;;5084807;28;20446;-72
2022/01/08 07:15:48;;;;;;;2.03;1.50;;;3.40;99.90;;;;;;5087336;28;20036;-71
2022/01/08 07:18:14;;;;;;;1.92;1.70;;;3.90;99.90;;;;;;5076727;28;20564;-72
2022/01/08 07:20:40;;;;;;;3.22;1.90;;;3.30;99.90;;;;;;5069538;28;20036;-75
2022/01/08 07:23:06;;;;;;;2.08;1.85;;;3.50;99.90;;;;;;5062200;28;20028;-76
2022/01/08 07:25:33;;;;;;;2.90;1.83;;;;;;;;;;5064822;28;20112;-77
2022/01/08 07:27:59;;;;;;;4.00;2.38;;;;;;;;;;5061922;28;20029;-76
2022/01/08 07:30:25;;;;;;;2.40;2.10;;;;;;;;;;5063041;28;20021;-76
2022/01/08 07:32:52;;;;;;;2.08;1.88;;;;;;;;;;5062298;28;20031;-76
2022/01/08 07:35:21;;;;;;;4.45;2.10;;;2.90;99.90;;;;;;5062551;28;20013;-75
2022/01/08 07:37:52;;;;;;;1.70;1.60;;;3.00;99.90;;;;;;5063551;28;20475;-75
2022/01/08 07:40:18;;;;;;;3.47;2.38;;;1.90;99.90;;;;;;5063403;28;20029;-77
2022/01/08 07:42:44;;;;;;;2.05;1.80;;;3.80;99.90;;;;;;5061702;28;20505;-78
2022/01/08 07:45:11;;;;;;;3.10;2.40;;;3.20;99.90;;;;;;5061368;28;20107;-75
2022/01/08 07:47:37;;;;;;;2.83;2.40;;;;;;;;;;5063230;28;20021;-76
2022/01/08 07:50:04;;;;;;;2.30;2.10;;;;;;;;;;5061198;28;20021;-76
2022/01/08 07:52:30;;;;;;;2.42;2.20;;;;;;;;;;5058681;28;20029;-69
2022/01/08 07:54:56;;;;;;;2.72;2.25;;;3.40;99.90;;;;;;5053808;28;20025;-74
2022/01/08 07:57:24;;;;;;;1.90;1.80;;;2.80;99.90;;;;;;5050514;28;20494;-74
2022/01/08 07:59:49;;;;;;;5.03;2.25;;;3.30;99.90;;;;;;5050137;28;20033;-74
2022/01/08 08:02:15;;;;;;;2.83;2.38;;;;;;;;;;5062611;28;20082;-73
2022/01/08 08:04:41;;;;;;;4.40;2.28;;;;;;;;;;5071884;28;20029;-73
2022/01/08 08:07:07;;;;;;;4.85;2.40;;;3.20;99.90;;;;;;5070141;28;20027;-74
2022/01/08 08:09:33;;;;;;;3.53;2.10;;;3.30;99.90;;;;;;5071974;28;20021;-73
2022/01/08 08:11:58;;;;;;;2.17;2.00;;;4.00;99.90;;;;;;5073243;28;20027;-74
2022/01/08 08:14:24;;;;;;;3.30;1.83;;;;;;;;;;5073470;28;20467;-74
2022/01/08 08:16:50;;;;;;;4.72;2.05;;;3.10;99.90;;;;;;5073427;28;20025;-72
2022/01/08 08:19:16;;;;;;;2.85;2.00;;;2.40;99.90;;;;;;5072292;28;20032;-71
2022/01/08 08:21:42;;;;;;;2.10;2.00;;;3.10;99.90;;;;;;5073292;28;20032;-72
2022/01/08 08:24:08;;;;;;;5.85;2.70;;;;;;;;;;5073507;28;20029;-72
2022/01/08 08:26:35;;;;;;;2.60;2.50;;;;;;;;;;5072830;28;20036;-72
2022/01/08 08:29:01;;;;;;;3.25;2.67;;;3.50;99.90;;;;;;5070150;28;20173;-72
2022/01/08 08:31:29;;;;;;;2.30;2.20;;;3.00;99.90;;;;;;5053138;28;20053;-72
2022/01/08 08:33:55;;;;;;;2.88;2.20;;;4.10;99.90;;;;;;5050469;28;20028;-72
2022/01/08 08:36:20;;;;;;;8.07;3.00;;;2.90;99.90;;;;;;5052875;28;20032;-72
2022/01/08 08:38:46;;;;;;;5.53;2.80;;;2.80;99.90;;;;;;5052266;28;20440;-72
2022/01/08 08:41:12;;;;;;;2.28;2.05;;;;;;;;;;5052857;28;20478;-70
2022/01/08 08:43:38;;;;;;;5.40;2.00;;;;;;;;;;5051783;28;20036;-72
2022/01/08 08:46:04;;;;;;;2.25;1.75;;;3.50;99.90;;;;;;5052646;28;20578;-72
2022/01/08 08:48:30;;;;;;;1.80;1.70;;;3.70;99.90;;;;;;5052195;28;20025;-72
2022/01/08 08:50:56;;;;;;;2.58;1.80;;;4.00;99.90;;;;;;5052959;28;20451;-70
2022/01/08 08:53:22;;;;;;;6.40;2.10;;;;;;;;;;5052810;28;20036;-69
2022/01/08 08:55:48;;;;;;;2.10;1.88;;;3.70;99.90;;;;;;5058371;28;20024;-69
2022/01/08 08:58:14;;;;;;;2.65;1.80;;;;;;;;;;5072098;28;20505;-69
2022/01/08 09:00:40;;;;;;;2.13;1.67;;;4.10;99.90;;;;;;5067260;28;20029;-72
2022/01/08 09:03:06;;;;;;;2.88;1.92;;;4.70;99.90;;;;;;5070829;28;20438;-72
2022/01/08 09:05:31;;;;;;;5.82;2.13;;;3.60;99.90;;;;;;5054366;28;20047;-71
2022/01/08 09:07:57;;;;;;;3.13;2.08;;;2.90;99.90;;;;;;5055547;28;20074;-71
2022/01/08 09:10:25;;;;;;;4.60;2.25;;;3.60;99.90;;;;;;5070357;28;20025;-72
2022/01/08 09:12:52;;;;;;;2.55;1.90;;;3.60;99.90;;;;;;5070884;28;20391;-72
2022/01/08 09:15:22;;;;;;;4.13;2.33;;;6.10;99.90;;;;;;5070759;28;20016;-72
2022/01/08 09:17:49;;;;;;;3.47;2.10;;;4.10;99.90;;;;;;5072021;28;20024;-71
2022/01/08 09:20:15;;;;;;;5.03;2.00;;;4.00;99.90;;;;;;5070276;28;20049;-72
2022/01/08 09:22:41;;;;;;;3.92;2.20;;;;;;;;;;5072500;28;20063;-72
2022/01/08 09:25:08;;;;;;;2.13;1.90;;;;;;;;;;5071545;28;20101;-72
2022/01/08 09:27:34;;;;;;;3.03;1.65;;;;;;;;;;5046739;22;20510;-70
2022/01/08 09:30:00;;;;;;;1.98;1.52;;;4.50;99.90;;;;;;5022846;28;20026;-69
2022/01/08 09:32:26;;;;;;;1.40;1.30;;;3.80;99.90;;;;;;5032240;28;20403;-70
2022/01/08 09:34:52;;;;;;;3.65;1.70;;;4.20;99.90;;;;;;5032084;28;20029;-69
2022/01/08 09:37:18;;;;;;;5.13;2.28;;;3.80;99.90;;;;;;5031978;28;20072;-69
2022/01/08 09:39:44;;;;;;;2.85;2.13;;;3.60;99.90;;;;;;5031207;28;20057;-69
2022/01/08 09:42:10;;;;;;;5.75;2.85;;;4.30;99.90;;;;;;5031257;28;20048;-70
2022/01/08 09:44:43;;;;;;;2.38;1.80;;;;;;;;;;5032066;28;20053;-69
2022/01/08 09:47:08;;;;;;;3.92;1.80;;;4.50;99.90;;;;;;5031705;28;20033;-70
2022/01/08 09:49:34;;;;;;;2.42;1.55;;;4.90;99.90;;;;;;5031064;28;20083;-69
2022/01/08 09:52:03;;;;;;;2.63;1.70;;;4.40;99.90;;;;;;5031605;28;20030;-69
2022/01/08 09:54:29;;;;;;;4.05;1.55;;;5.70;99.90;;;;;;5031730;28;20053;-76
2022/01/08 09:56:55;;;;;;;3.80;2.10;;;;;;;;;;5022894;28;20033;-67
2022/01/08 09:59:21;;;;;;;3.97;1.58;;;;;;;;;;5011388;28;20464;-70
2022/01/08 10:01:59;;;;;;;2.10;1.60;;;4.40;99.90;;;;;;5011788;28;20030;-69
2022/01/08 10:04:35;;;;;;;4.68;1.85;;;7.60;99.90;;;;;;5010623;28;20033;-75
2022/01/08 10:07:23;;;;;;;2.78;1.70;;;;;;;;;;5011583;28;20033;-70
2022/01/08 10:09:58;;;;;;;3.70;1.92;;;;;;;;;;5011173;28;20392;-70
2022/01/08 10:12:39;;;;;;;4.35;1.70;;;;;;;;;;5011653;28;20118;-70
2022/01/08 10:17:50;;;;;;;8.23;4.38;;;4.10;99.90;;;;;;5011970;28;20056;-69
2022/01/08 10:20:30;;;;;;;5.35;1.75;;;;;;;;;;5011023;28;20472;-68
2022/01/08 10:23:11;;;;;;;1.98;1.80;;;;;;;;;;5011985;28;20038;-68
2022/01/08 10:25:41;;;;;;;5.00;2.92;;;4.30;99.90;;;;;;5010264;28;20026;-68
2022/01/08 10:28:07;;;;;;;4.47;1.80;;;4.20;99.90;;;;;;5011352;28;20045;-69
2022/01/08 10:30:33;;;;;;;3.45;1.70;;;;;;;;;;5010929;28;20018;-69
2022/01/08 10:33:00;;;;;;;3.45;1.60;;;;;;;;;;5011464;28;20030;-68
2022/01/08 10:35:49;;;;;;;1.45;1.35;;;;;;;;;;5010927;28;20026;-69
2022/01/08 10:38:15;;;;;;;5.28;1.58;;;;;;;;;;5009721;28;20145;-69
2022/01/08 10:40:41;;;;;;;3.90;1.40;;;;;;;;;;5011578;28;20026;-71
2022/01/08 10:43:24;;;;;;;4.78;1.50;;;;;;;;;;5011811;28;20108;-71
2022/01/08 10:45:50;;;;;;;4.78;1.60;;;;;;;;;;5010620;28;20666;-71
2022/01/08 10:48:31;;;;;;;4.00;1.60;;;;;;;;;;5010639;28;20038;-72
2022/01/08 10:51:11;;;;;;;3.60;1.80;;;;;;;;;;5011019;28;20026;-69
2022/01/08 10:53:50;;;;;;;4.95;1.75;;;;;;;;;;5013401;28;20053;-73
2022/01/08 10:56:27;;;;;;;5.60;2.15;;;;;;;;;;5015531;28;20030;-73
2022/01/08 10:58:57;;;;;;;4.38;1.45;;;;;;;;;;5013690;28;20060;-79
2022/01/08 11:01:40;;;;;;;4.70;1.65;;;;;;;;;;5016458;28;20022;-79
2022/01/08 11:04:08;;;;;;;7.55;1.70;;;;;;;;;;5014951;28;20030;-77
2022/01/08 11:06:34;;;;;;;2.80;1.80;;;;;;;;;;5013925;28;20025;-77
2022/01/08 11:09:00;;;;;;;5.32;1.40;;;;;;;;;;5014516;28;20117;-77
2022/01/08 11:11:30;;;;;;;3.70;1.48;;;;;;;;;;5014830;28;20683;-77
2022/01/08 11:14:05;;;;;;;5.18;1.65;;;;;;;;;;5014003;28;20120;-77
2022/01/08 11:16:31;;;;;;;6.53;1.52;;;;;;;;;;5015665;28;20025;-74
2022/01/08 11:18:59;;;;;;;8.27;1.75;;;;;;;;;;5012245;28;20022;-75
2022/01/08 11:21:28;;;;;;;3.78;1.30;;;;;;;;;;5014138;28;20567;-75
2022/01/08 11:23:55;;;;;;;4.82;1.83;;;;;;;;;;5011815;28;20029;-75
2022/01/08 11:26:22;;;;;;;3.03;1.38;;;;;;;;;;5014440;28;20451;-75
2022/01/08 11:28:48;;;;;;;3.28;1.40;;;;;;;;;;5028814;28;20010;-76
2022/01/08 11:31:15;;;;;;;4.00;1.92;;;;;;;;;;5037663;28;20049;-75
2022/01/08 11:33:45;;;;;;;4.28;1.40;;;;;;;;;;5036999;28;20057;-74
2022/01/08 11:36:13;;;;;;;5.95;1.90;;;;;;;;;;5035307;28;20014;-75
2022/01/08 11:38:43;;;;;;;3.67;1.98;;;;;;;;;;5016847;28;20013;-75
2022/01/08 11:41:09;;;;;;;5.03;1.60;;;;;;;;;;5020357;28;20124;-69
2022/01/08 11:43:36;;;;;;;3.47;1.50;;;;;;;;;;5029871;28;20046;-69
2022/01/08 11:46:07;;;;;;;3.97;1.60;;;;;;;;;;5028129;28;20087;-70
2022/01/08 11:48:37;;;;;;;4.50;1.52;;;4.80;99.90;;;;;;5018139;28;20026;-70
2022/01/08 11:51:04;;;;;;;2.35;1.33;;;5.10;99.90;;;;;;5014554;28;20654;-70
2022/01/08 11:53:31;;;;;;;2.05;1.60;;;;;;;;;;5015472;28;20026;-70
2022/01/08 11:56:04;;;;;;;3.83;1.50;;;;;;;;;;5014841;28;20033;-70
2022/01/08 11:58:33;;;;;;;3.60;1.70;;;4.40;99.90;;;;;;5013581;28;20072;-64
2022/01/08 12:01:04;;;;;;;3.15;1.55;;;;;;;;;;5014443;28;20092;-66
2022/01/08 12:03:31;;;;;;;4.38;1.50;;;;;;;;;;5013469;28;20033;-65
2022/01/08 12:05:58;;;;;;;4.30;1.90;;;;;;;;;;5013529;28;20045;-70
2022/01/08 12:08:45;;;;;;;6.00;1.70;;;;;;;;;;5013747;28;20029;-68
2022/01/08 12:11:11;;;;;;;10.90;4.88;;;;;;;;;;5013029;28;20053;-64
2022/01/08 12:13:45;;;;;;;3.83;1.70;;;;;;;;;;5014273;28;20329;-64
2022/01/08 12:16:46;;;;;;;1.15;1.13;;;;;;;;;;5013516;28;20484;-64
2022/01/08 12:19:28;;;;;;;1.80;1.30;;;;;;;;;;5009809;28;20056;-64
2022/01/08 12:21:54;;;;;;;1.13;1.00;;;;;;;;;;4996123;28;20733;-64
2022/01/08 12:24:29;;;;;;;6.18;1.33;;;;;;;;;;4992774;28;20034;-63
2022/01/08 12:26:56;;;;;;;2.45;1.48;;;;;;;;;;4993765;28;20579;-63
2022/01/08 12:29:41;;;;;;;1.85;1.42;;;;;;;;;;4993561;28;20025;-63
2022/01/08 12:32:37;;;;;;;3.03;1.10;;;;;;;;;;4994552;28;20041;-64
2022/01/08 12:35:16;;;;;;;2.70;1.65;;;;;;;;;;4994048;28;20014;-63
2022/01/08 12:37:43;;;;;;;2.42;1.45;;;;;;;;;;4994172;28;20030;-62
2022/01/08 12:40:11;;;;;;;1.77;1.40;;;;;;;;;;4992977;28;20377;-63
2022/01/08 12:42:38;;;;;;;4.60;1.48;;;;;;;;;;4993734;28;20101;-63
2022/01/08 12:45:30;;;;;;;4.15;1.73;;;;;;;;;;4993345;28;20026;-63
2022/01/08 12:48:08;;;;;;;1.40;1.27;;;;;;;;;;4993425;28;20034;-62
2022/01/08 12:50:43;;;;;;;3.22;1.60;;;;;;;;;;5005726;28;20044;-62
2022/01/08 12:53:09;;;;;;;3.42;1.30;;;;;;;;;;5013190;28;20025;-62
2022/01/08 12:55:37;;;;;;;2.67;1.45;;;;;;;;;;5012917;28;20420;-64
2022/01/08 12:58:15;;;;;;;1.48;1.35;;;;;;;;;;5012726;28;20488;-63
2022/01/08 13:00:56;;;;;;;2.47;1.40;;;;;;;;;;5012921;28;20029;-63
2022/01/08 13:03:33;;;;;;;1.83;1.60;;;;;;;;;;5012477;28;20041;-63
2022/01/08 13:06:03;;;;;;;4.95;1.40;;;;;;;;;;5012431;28;20029;-64
2022/01/08 13:08:52;;;;;;;3.40;1.52;;;;;;;;;;5011404;28;20038;-75
2022/01/08 13:11:20;;;;;;;2.35;1.40;;;;;;;;;;5009173;28;20018;-75
2022/01/08 13:13:50;;;;;;;2.30;1.20;;;;;;;;;;5011133;28;20032;-75
2022/01/08 13:16:22;;;;;;;1.50;1.40;;;;;;;;;;4994697;28;20053;-75
2022/01/08 13:18:49;;;;;;;2.05;1.45;;;;;;;;;;5009782;28;20032;-75
2022/01/08 13:21:15;;;;;;;2.05;1.60;;;;;;;;;;5010945;28;20500;-76
2022/01/08 13:23:45;;;;;;;1.85;1.20;;;;;;;;;;5011682;28;20100;-76
2022/01/08 13:26:11;;;;;;;4.20;1.58;;;;;;;;;;5008931;28;20161;-76
2022/01/08 13:28:38;;;;;;;3.25;1.65;;;;;;;;;;5010292;28;20076;-76
2022/01/08 13:31:04;;;;;;;2.22;2.00;;;;;;;;;;5011617;28;20472;-76
2022/01/08 13:33:29;;;;;;;3.15;1.52;;;7.10;99.90;;;;;;5011745;28;20124;-76
2022/01/08 13:36:07;;;;;;;2.38;1.25;;;;;;;;;;5008829;28;20033;-71
2022/01/08 13:38:34;;;;;;;2.33;1.38;;;;;;;;;;5010661;28;20026;-75
2022/01/08 13:41:11;;;;;;;2.55;1.27;;;;;;;;;;5011521;28;20049;-75
2022/01/08 13:43:56;;;;;;;1.30;1.13;;;;;;;;;;5011994;28;20069;-75
2022/01/08 13:46:22;;;;;;;2.88;1.73;;;;;;;;;;5012550;28;20026;-74
2022/01/08 13:48:48;;;;;;;1.38;1.20;;;;;;;;;;5009795;28;20511;-75
2022/01/08 13:51:16;;;;;;;2.80;1.27;;;;;;;;;;5012620;28;20496;-75
2022/01/08 13:53:42;;;;;;;1.95;1.20;;;;;;;;;;5010973;28;20045;-74
2022/01/08 13:56:08;;;;;;;1.30;1.20;;;;;;;;;;5012481;28;20033;-75
2022/01/08 13:58:34;;;;;;;2.63;1.58;;;;;;;;;;5007862;28;20037;-74
2022/01/08 14:01:09;;;;;;;1.50;1.30;;;;;;;;;;5011047;28;20034;-74
2022/01/08 14:03:49;;;;;;;3.28;1.27;;;;;;;;;;5013982;28;20045;-78
2022/01/08 14:06:26;;;;;;;1.33;1.20;;;;;;;;;;5023778;28;20110;-75
2022/01/08 14:08:56;;;;;;;1.17;0.90;;;;;;;;;;4996814;28;20082;-74
2022/01/08 14:11:22;;;;;;;1.13;1.00;;;;;;;;;;5010322;28;20034;-74
2022/01/08 14:13:53;;;;;;;1.80;1.20;;;;;;;;;;5010847;28;20027;-74
2022/01/08 14:16:26;;;;;;;2.35;1.15;;;;;;;;;;5010244;28;20026;-74
2022/01/08 14:18:52;;;;;;;3.05;1.20;;;;;;;;;;5002202;28;20041;-75
2022/01/08 14:21:19;;;;;;;1.38;1.27;;;;;;;;;;4995622;28;20026;-75
2022/01/08 14:23:47;;;;;;;3.38;1.25;;;;;;;;;;4977761;28;20022;-77
2022/01/08 14:26:14;;;;;;;2.08;1.50;;;;;;;;;;5011568;28;20053;-78
2022/01/08 14:28:40;;;;;;;2.28;1.08;;;;;;;;;;5017371;28;20033;-78
2022/01/08 14:31:12;;;;;;;1.98;1.00;;;;;;;;;;5016020;28;20060;-78
2022/01/08 14:33:58;;;;;;;1.02;1.02;;;;;;;;;;5015850;28;20025;-79
2022/01/08 14:36:24;;;;;;;2.17;1.42;;;;;;;;;;5013720;28;20102;-78
2022/01/08 14:38:50;;;;;;;1.30;1.20;;;5.00;99.90;;;;;;5014175;28;20109;-78
2022/01/08 14:41:30;;;;;;;2.67;1.58;;;;;;;;;;5013451;28;20080;-78
2022/01/08 14:44:00;;;;;;;1.70;1.20;;;;;;;;;;5013997;28;20022;-78
2022/01/08 14:46:26;;;;;;;5.95;1.77;;;;;;;;;;5013650;28;20025;-78
2022/01/08 14:48:52;;;;;;;3.40;1.30;;;4.20;99.90;;;;;;5013128;28;20376;-77
2022/01/08 14:51:18;;;;;;;2.00;1.60;;;;;;;;;;5014950;28;20063;-77
2022/01/08 14:53:44;;;;;;;2.00;1.60;;;;;;;;;;5016089;28;20036;-78
2022/01/08 14:56:10;;;;;;;4.82;1.50;;;;;;;;;;5015697;28;20044;-78
2022/01/08 14:58:38;;;;;;;2.65;1.20;;;;;;;;;;5015534;28;20109;-78
2022/01/08 15:01:04;;;;;;;2.25;0.93;;;;;;;;;;5016647;28;20026;-78
2022/01/08 15:03:30;;;;;;;1.33;1.10;;;;;;;;;;5016915;28;20094;-82
2022/01/08 15:05:56;;;;;;;1.75;1.30;;;;;;;;;;5035165;28;20091;-77
2022/01/08 15:08:22;;;;;;;4.45;1.10;;;;;;;;;;5036952;28;20037;-76
2022/01/08 15:10:48;;;;;;;1.17;1.15;;;;;;;;;;5024228;28;20026;-76
2022/01/08 15:13:14;;;;;;;1.50;1.30;;;;;;;;;;5017175;28;20018;-77
2022/01/08 15:15:40;;;;;;;3.60;1.23;;;;;;;;;;5017594;28;20033;-69
2022/01/08 15:18:06;;;;;;;1.65;1.55;;;;;;;;;;5026156;28;20029;-74